»·PEaware :: N900TW KRDD-KOTH

N900TW :: KRDD-KOTH

FLIGHT INFORMATION

Flight Status: Arrived
Operator: Privately registered:
United States
More flights under this callsign
Pilot: Bruno O. (13284)
Aircraft: SOCATA TBM-900
(TBM9)
More flights by this aircraft type
Origin: KRDD Redding Mun
United States
Destination: KOTH North Bend Mun
United States
More flights between these airports :: More routes between these airports
Route: SHA3 FJS LUPCI
File this flight plan on PilotEdge
Remarks:
Altitude:
(Current/Filed)
24,000ft
Speed:
(Current/Filed)
280kts
Departed: 24-Sep-19 11:08 AM
Arrived: 24-Sep-19 11:59 AM
Distance/Time
Traveled:
195nm/0:51
Distance/Time
To Go:
Arrived

Flight Plot

Page will automatically refresh every two minutes.

Flight plan parsing failed; only flown route is shown


Map Options




Map Legend


Flown Route
Filed Route
Departure Airport
Arrival Airport
Navaid (VOR, NDB)
Fix

Horizontal Profiles

Position Reports

Time Latitude Longitude Heading Altitude Ground
Speed
24-Sep-19 10:58 40.508940 -122.299200 0 460ft 0kts
24-Sep-19 10:59 40.508940 -122.299200 0 460ft 0kts
24-Sep-19 11:00 40.508940 -122.299200 0 460ft 0kts
24-Sep-19 11:01 40.508940 -122.299200 0 460ft 0kts
24-Sep-19 11:02 40.508940 -122.299200 0 460ft 0kts
24-Sep-19 11:03 40.508940 -122.299200 0 460ft 0kts
24-Sep-19 11:04 40.508490 -122.298286 90 461ft 13kts
24-Sep-19 11:05 40.506057 -122.298448 175 460ft 19kts
24-Sep-19 11:06 40.501540 -122.295444 137 460ft 16kts
24-Sep-19 11:07 40.518326 -122.294650 0 1178ft 117kts
24-Sep-19 11:08 40.557043 -122.299416 356 3143ft 157kts
24-Sep-19 11:09 40.601228 -122.305751 356 5509ft 162kts
24-Sep-19 11:10 40.646349 -122.314709 355 7476ft 170kts
24-Sep-19 11:11 40.693468 -122.323234 349 9775ft 173kts
24-Sep-19 11:12 40.737665 -122.350171 336 12168ft 175kts
24-Sep-19 11:13 40.781547 -122.377922 335 14394ft 178kts
24-Sep-19 11:14 40.826570 -122.406493 334 16570ft 182kts
24-Sep-19 11:15 40.872562 -122.435747 333 18743ft 187kts
24-Sep-19 11:16 40.919770 -122.465810 334 20884ft 192kts
24-Sep-19 11:17 40.968451 -122.496856 334 22878ft 197kts
24-Sep-19 11:18 41.019689 -122.529562 334 24261ft 219kts
24-Sep-19 11:19 41.081556 -122.569143 333 24303ft 263kts
24-Sep-19 11:20 41.148769 -122.612248 333 24389ft 277kts
24-Sep-19 11:21 41.218059 -122.656798 333 24281ft 285kts
24-Sep-19 11:22 41.289948 -122.703105 333 24277ft 285kts
24-Sep-19 11:23 41.361492 -122.749328 333 24302ft 285kts
24-Sep-19 11:24 41.433410 -122.796637 329 24331ft 284kts
24-Sep-19 11:25 41.502352 -122.850014 328 24339ft 285kts
24-Sep-19 11:26 41.570896 -122.903776 328 24332ft 285kts
24-Sep-19 11:27 41.639595 -122.957823 328 24311ft 285kts
24-Sep-19 11:28 41.708286 -123.011988 328 24290ft 285kts
24-Sep-19 11:29 41.776945 -123.066262 328 24268ft 285kts
24-Sep-19 11:30 41.845546 -123.120639 328 24248ft 285kts
24-Sep-19 11:31 41.913981 -123.175015 328 24244ft 284kts
24-Sep-19 11:32 41.982429 -123.229538 328 24270ft 283kts
24-Sep-19 11:33 42.050705 -123.284047 327 24306ft 281kts
24-Sep-19 11:34 42.120214 -123.339732 328 23282ft 305kts
24-Sep-19 11:35 42.193285 -123.398379 328 21840ft 313kts
24-Sep-19 11:36 42.264550 -123.455745 328 20155ft 309kts
24-Sep-19 11:37 42.338734 -123.515619 328 18323ft 305kts
24-Sep-19 11:38 42.410587 -123.573767 328 16517ft 302kts
24-Sep-19 11:39 42.483376 -123.632848 328 14663ft 298kts
24-Sep-19 11:40 42.550057 -123.687094 328 13083ft 288kts
24-Sep-19 11:41 42.616894 -123.741605 328 12059ft 274kts
24-Sep-19 11:42 42.681313 -123.794291 329 11058ft 272kts
24-Sep-19 11:43 42.746675 -123.847867 329 10045ft 274kts
24-Sep-19 11:44 42.812132 -123.901662 330 9024ft 273kts
24-Sep-19 11:45 42.877491 -123.955498 330 8015ft 272kts
24-Sep-19 11:46 42.939992 -124.007127 330 7954ft 254kts
24-Sep-19 11:47 43.005586 -124.048281 340 6955ft 261kts
24-Sep-19 11:48 43.073956 -124.085434 339 5851ft 262kts
24-Sep-19 11:49 43.141923 -124.122065 339 4625ft 256kts
24-Sep-19 11:50 43.202148 -124.154036 339 3975ft 192kts
24-Sep-19 11:51 43.243994 -124.176361 339 3835ft 168kts
24-Sep-19 11:52 43.283784 -124.197458 339 3032ft 140kts
24-Sep-19 11:53 43.307252 -124.225450 295 2831ft 117kts
24-Sep-19 11:54 43.329694 -124.246895 26 1863ft 112kts
24-Sep-19 11:55 43.355758 -124.260009 338 1441ft 106kts
24-Sep-19 11:56 43.383766 -124.275874 346 967ft 115kts
24-Sep-19 11:57 43.405231 -124.274995 21 569ft 81kts
24-Sep-19 11:58 43.417808 -124.253302 62 12ft 37kts
24-Sep-19 11:59 43.418952 -124.246926 152 20ft 14kts
24-Sep-19 12:00 43.415986 -124.245632 226 23ft 14kts
24-Sep-19 12:01 43.416186 -124.246488 329 25ft 0kts
24-Sep-19 12:02 43.416186 -124.246488 329 25ft 0kts
24-Sep-19 12:03 43.416186 -124.246488 329 25ft 0kts

Navigation Log

Ident Type
Flight plan parsing failed, navigation log unavailable